Island Venture — WDG3765 — position and weather

sailwx.info

Track history (hours):
 
Tides and Currents Weather Stations Pressure Air Temp Water Temp Dewpoint Dewpoint Depression Visibility Wind Speed Wind Dir Waves Ship Positions

Island Venture

Owner: Island Tug and Barge, Seattle, WA. More information available from US FCC via Universal Licensing System and Coast Guard Vessel Documentation Center.

Last reported at 2016-Jul-23 10:33 UTC. Time now 2016-Jul-23 11:15 UTC.
Position N 47°34' W 122°21'.

Type: Tug. MMSI: 367529420.

Date/timePositionNaut miles runAvg speedWind from/ knotsBaromVisibWave heightAir tempDewpointWater temp
2016-Jul-23 10:33N 47°34' W 122°21'3 3.4
2016-Jul-23 09:33N 47°35' W 122°26'8 7.7
2016-Jul-23 08:33N 47°28' W 122°31'8 8.0
2016-Jul-23 07:33N 47°20' W 122°33'9 8.0
2016-Jul-23 06:27N 47°12' W 122°38'6 0.3
2016-Jul-22 08:32N 47°17' W 122°32'4 3.7
2016-Jul-22 07:33N 47°20' W 122°33'10 5.1
2016-Jul-22 05:33N 47°30' W 122°29'6 5.7
2016-Jul-22 04:33N 47°35' W 122°25'3 2.6
2016-Jul-22 03:33N 47°34' W 122°21'1 1.3
2016-Jul-22 02:33N 47°35' W 122°22'3 3.3
2016-Jul-22 01:33N 47°32' W 122°20'0 0.3
2016-Jul-22 00:32N 47°33' W 122°20'0 0.0
2016-Jul-21 23:33N 47°33' W 122°20'2 1.8
2016-Jul-21 22:33N 47°34' W 122°21'0 0.0
2016-Jul-21 21:34N 47°34' W 122°21'0 0.0
2016-Jul-21 20:33N 47°34' W 122°21'0 0.0
2016-Jul-21 19:33N 47°34' W 122°21'0 0.0
2016-Jul-21 18:33N 47°34' W 122°21'0 0.0
2016-Jul-21 17:33N 47°34' W 122°21'0 0.0
2016-Jul-21 16:33N 47°34' W 122°21'0 0.0
2016-Jul-21 15:33N 47°34' W 122°21'0 0.0
2016-Jul-21 14:33N 47°34' W 122°21'0 0.0
2016-Jul-21 13:33N 47°34' W 122°21'0 0.0
2016-Jul-21 12:33N 47°34' W 122°21'0 0.0
2016-Jul-21 11:33N 47°34' W 122°21'0 0.0
2016-Jul-21 10:33N 47°34' W 122°21'1 0.8
2016-Jul-21 09:33N 47°35' W 122°22'5 4.6
2016-Jul-21 08:33N 47°32' W 122°27'7 7.0
2016-Jul-21 07:33N 47°26' W 122°31'7 7.3
2016-Jul-21 06:33N 47°19' W 122°33'8 7.6
2016-Jul-21 05:32N 47°12' W 122°37'5 0.2
2016-Jul-20 06:17N 47°16' W 122°33'4 5.0
2016-Jul-20 05:33N 47°19' W 122°33'7 6.7
2016-Jul-20 04:33N 47°26' W 122°32'7 6.8
2016-Jul-20 03:33N 47°32' W 122°28'5 4.7
2016-Jul-20 02:33N 47°35' W 122°22'2 1.7
2016-Jul-20 01:33N 47°34' W 122°21'0 0.4
2016-Jul-20 00:33N 47°34' W 122°21'2 1.6
2016-Jul-19 23:33N 47°36' W 122°22'5 4.7
2016-Jul-19 22:33N 47°38' W 122°27'7 6.6
2016-Jul-19 21:33N 47°45' W 122°27'7 6.7
2016-Jul-19 20:33N 47°52' W 122°29'7 6.8
2016-Jul-19 19:33N 47°57' W 122°35'13 6.2
2016-Jul-19 17:30N 48°09' W 122°43'3 2.9
2016-Jul-19 16:23N 48°10' W 122°47'2 2.5
2016-Jul-19 15:33N 48°12' W 122°49'6 6.0
2016-Jul-19 14:33N 48°18' W 122°47'8 7.7
2016-Jul-19 13:33N 48°26' W 122°44'9 8.5
2016-Jul-19 12:33N 48°34' W 122°45'7 6.9
2016-Jul-19 11:33N 48°41' W 122°44'7 6.7
2016-Jul-19 10:33N 48°46' W 122°51'7 7.1
2016-Jul-19 09:33N 48°50' W 122°60'7 6.7
2016-Jul-19 08:33N 48°54' W 123°08'7 6.6
2016-Jul-19 07:33N 48°59' W 123°15'20 6.8
2016-Jul-19 04:33N 49°13' W 123°38'6 6.3
2016-Jul-19 03:33N 49°17' W 123°45'7 6.7
2016-Jul-19 02:32N 49°20' W 123°54'6 6.2
2016-Jul-19 01:33N 49°25' W 124°01'6 6.0
2016-Jul-19 00:33N 49°28' W 124°08'7 6.6
2016-Jul-18 23:26N 49°32' W 124°17'6 6.7
2016-Jul-18 22:29N 49°35' W 124°26'7 6.9
2016-Jul-18 21:32N 49°40' W 124°33'1 0.7
2016-Jul-18 19:30N 49°42' W 124°33'0 0.0
2016-Jul-18 18:23N 49°42' W 124°33'0 0.0
2016-Jul-18 17:30N 49°42' W 124°33'0 0.0
2016-Jul-18 16:26N 49°42' W 124°33'0 0.0
2016-Jul-18 15:31N 49°42' W 124°33'0 0.0
2016-Jul-18 14:29N 49°42' W 124°33'0 0.0
2016-Jul-18 13:33N 49°42' W 124°33'0 0.1
2016-Jul-18 12:22N 49°42' W 124°33'1 1.4
2016-Jul-18 11:31N 49°40' W 124°33'8 8.3
2016-Jul-18 10:32N 49°35' W 124°24'8 8.3
2016-Jul-18 09:32N 49°31' W 124°13'8 7.9
2016-Jul-18 08:32N 49°26' W 124°04'7 7.4
2016-Jul-18 07:33N 49°21' W 123°55'8 7.9
2016-Jul-18 06:32N 49°16' W 123°45'8 8.0
2016-Jul-18 05:33N 49°13' W 123°35'7 7.5
2016-Jul-18 04:33N 49°08' W 123°26'7 7.5
2016-Jul-18 03:33N 49°02' W 123°18'8 8.2
2016-Jul-18 02:33N 48°57' W 123°09'8 8.5
2016-Jul-18 01:33N 48°52' W 122°59'8 8.4
2016-Jul-18 00:33N 48°46' W 122°49'9 9.0
2016-Jul-17 23:33N 48°38' W 122°44'1110.7
2016-Jul-17 22:33N 48°27' W 122°44'9 8.8
2016-Jul-17 21:33N 48°19' W 122°46'17 5.6
2016-Jul-17 18:26N 48°02' W 122°37'7 7.7
2016-Jul-17 17:33N 47°57' W 122°31'8 8.4
2016-Jul-17 16:33N 47°49' W 122°26'9 8.6
2016-Jul-17 15:33N 47°40' W 122°27'6 5.9
2016-Jul-17 14:33N 47°36' W 122°22'2 2.0
2016-Jul-17 13:33N 47°34' W 122°21'0 0.0
2016-Jul-17 12:33N 47°34' W 122°21'0 0.0
2016-Jul-17 11:33N 47°34' W 122°21'0 0.0
2016-Jul-17 10:33N 47°34' W 122°21'0 0.0
2016-Jul-17 09:33N 47°34' W 122°21'0 0.0
2016-Jul-17 08:33N 47°34' W 122°21'0 0.0
2016-Jul-17 07:33N 47°34' W 122°21'0 0.0
2016-Jul-17 06:33N 47°34' W 122°21'1 0.3
2016-Jul-17 04:33N 47°34' W 122°21'0 0.0
2016-Jul-17 03:33N 47°34' W 122°21'0 0.0
2016-Jul-17 02:33N 47°34' W 122°21'0 0.0
2016-Jul-17 01:33N 47°34' W 122°21'1 1.1
2016-Jul-17 00:33N 47°35' W 122°22'0 0.2
2016-Jul-16 23:33N 47°36' W 122°22'0 0.0
2016-Jul-16 22:33N 47°36' W 122°22'0 0.0
2016-Jul-16 21:33N 47°36' W 122°22'0 0.1
2016-Jul-16 20:33N 47°36' W 122°22'1 1.4
2016-Jul-16 19:33N 47°34' W 122°21'0 0.0
2016-Jul-16 18:33N 47°34' W 122°21'0 0.0
2016-Jul-16 17:33N 47°34' W 122°21'1 0.6
2016-Jul-16 16:33N 47°34' W 122°21'1 1.3
2016-Jul-16 15:34N 47°35' W 122°22'1 1.4
2016-Jul-16 14:33N 47°34' W 122°21'1 0.0
2016-Jul-15 16:18N 47°34' W 122°21'0 0.0
2016-Jul-15 15:33N 47°34' W 122°21'0 0.0
2016-Jul-15 14:33N 47°34' W 122°21'0 0.0
2016-Jul-15 13:33N 47°34' W 122°21'0 0.0
2016-Jul-15 12:33N 47°34' W 122°21'0 0.0
2016-Jul-15 11:33N 47°34' W 122°21'0 0.0
2016-Jul-15 10:33N 47°34' W 122°21'2 2.1
2016-Jul-15 09:33N 47°33' W 122°20'4 3.6
2016-Jul-15 08:33N 47°36' W 122°22'2 1.6
2016-Jul-15 07:33N 47°34' W 122°21'0 0.0
2016-Jul-15 06:33N 47°34' W 122°21'0 0.0
2016-Jul-15 05:33N 47°34' W 122°21'0 0.0
2016-Jul-15 04:33N 47°34' W 122°21'0 0.0
2016-Jul-15 03:33N 47°34' W 122°21'0 0.0
2016-Jul-15 02:33N 47°34' W 122°21'0 0.0
2016-Jul-15 01:33N 47°34' W 122°21'0 0.0
2016-Jul-15 00:33N 47°34' W 122°21'0 0.0
2016-Jul-14 23:33N 47°34' W 122°21'0 0.0
2016-Jul-14 22:33N 47°34' W 122°21'0 0.0
2016-Jul-14 21:33N 47°34' W 122°21'0 0.3
2016-Jul-14 20:33N 47°34' W 122°21'1 1.3
2016-Jul-14 19:33N 47°35' W 122°22'3 2.6
2016-Jul-14 18:32N 47°33' W 122°20'1 1.1
2016-Jul-14 17:33N 47°34' W 122°21'0 0.0
2016-Jul-14 16:33N 47°34' W 122°21'3 3.0
2016-Jul-14 15:33N 47°36' W 122°24'5 5.4
2016-Jul-14 14:33N 47°31' W 122°29'6 6.4
2016-Jul-14 13:33N 47°25' W 122°32'7 6.8
2016-Jul-14 12:33N 47°19' W 122°33'7 7.4
2016-Jul-14 11:33N 47°12' W 122°37'  
Track history (hours):
 
Tides and Currents Weather Stations Pressure Air Temp Water Temp Dewpoint Dewpoint Depression Visibility Wind Speed Wind Dir Waves Ship Positions

Island Venture

Owner: Island Tug and Barge, Seattle, WA. More information available from US FCC via Universal Licensing System and Coast Guard Vessel Documentation Center.

Last reported at 2016-Jul-23 10:33 UTC. Time now 2016-Jul-23 11:15 UTC.
Position N 47°34' W 122°21'.

Type: Tug. MMSI: 367529420.

Date/timePositionNaut miles runAvg speedWind from/ knotsBaromVisibWave heightAir tempDewpointWater temp
2016-Jul-23 10:33N 47°34' W 122°21'3 3.4
2016-Jul-23 09:33N 47°35' W 122°26'8 7.7
2016-Jul-23 08:33N 47°28' W 122°31'8 8.0
2016-Jul-23 07:33N 47°20' W 122°33'9 8.0
2016-Jul-23 06:27N 47°12' W 122°38'6 0.3
2016-Jul-22 08:32N 47°17' W 122°32'4 3.7
2016-Jul-22 07:33N 47°20' W 122°33'10 5.1
2016-Jul-22 05:33N 47°30' W 122°29'6 5.7
2016-Jul-22 04:33N 47°35' W 122°25'3 2.6
2016-Jul-22 03:33N 47°34' W 122°21'1 1.3
2016-Jul-22 02:33N 47°35' W 122°22'3 3.3
2016-Jul-22 01:33N 47°32' W 122°20'0 0.3
2016-Jul-22 00:32N 47°33' W 122°20'0 0.0
2016-Jul-21 23:33N 47°33' W 122°20'2 1.8
2016-Jul-21 22:33N 47°34' W 122°21'0 0.0
2016-Jul-21 21:34N 47°34' W 122°21'0 0.0
2016-Jul-21 20:33N 47°34' W 122°21'0 0.0
2016-Jul-21 19:33N 47°34' W 122°21'0 0.0
2016-Jul-21 18:33N 47°34' W 122°21'0 0.0
2016-Jul-21 17:33N 47°34' W 122°21'0 0.0
2016-Jul-21 16:33N 47°34' W 122°21'0 0.0
2016-Jul-21 15:33N 47°34' W 122°21'0 0.0
2016-Jul-21 14:33N 47°34' W 122°21'0 0.0
2016-Jul-21 13:33N 47°34' W 122°21'0 0.0
2016-Jul-21 12:33N 47°34' W 122°21'0 0.0
2016-Jul-21 11:33N 47°34' W 122°21'0 0.0
2016-Jul-21 10:33N 47°34' W 122°21'1 0.8
2016-Jul-21 09:33N 47°35' W 122°22'5 4.6
2016-Jul-21 08:33N 47°32' W 122°27'7 7.0
2016-Jul-21 07:33N 47°26' W 122°31'7 7.3
2016-Jul-21 06:33N 47°19' W 122°33'8 7.6
2016-Jul-21 05:32N 47°12' W 122°37'5 0.2
2016-Jul-20 06:17N 47°16' W 122°33'4 5.0
2016-Jul-20 05:33N 47°19' W 122°33'7 6.7
2016-Jul-20 04:33N 47°26' W 122°32'7 6.8
2016-Jul-20 03:33N 47°32' W 122°28'5 4.7
2016-Jul-20 02:33N 47°35' W 122°22'2 1.7
2016-Jul-20 01:33N 47°34' W 122°21'0 0.4
2016-Jul-20 00:33N 47°34' W 122°21'2 1.6
2016-Jul-19 23:33N 47°36' W 122°22'5 4.7
2016-Jul-19 22:33N 47°38' W 122°27'7 6.6
2016-Jul-19 21:33N 47°45' W 122°27'7 6.7
2016-Jul-19 20:33N 47°52' W 122°29'7 6.8
2016-Jul-19 19:33N 47°57' W 122°35'13 6.2
2016-Jul-19 17:30N 48°09' W 122°43'3 2.9
2016-Jul-19 16:23N 48°10' W 122°47'2 2.5
2016-Jul-19 15:33N 48°12' W 122°49'6 6.0
2016-Jul-19 14:33N 48°18' W 122°47'8 7.7
2016-Jul-19 13:33N 48°26' W 122°44'9 8.5
2016-Jul-19 12:33N 48°34' W 122°45'7 6.9
2016-Jul-19 11:33N 48°41' W 122°44'7 6.7
2016-Jul-19 10:33N 48°46' W 122°51'7 7.1
2016-Jul-19 09:33N 48°50' W 122°60'7 6.7
2016-Jul-19 08:33N 48°54' W 123°08'7 6.6
2016-Jul-19 07:33N 48°59' W 123°15'20 6.8
2016-Jul-19 04:33N 49°13' W 123°38'6 6.3
2016-Jul-19 03:33N 49°17' W 123°45'7 6.7
2016-Jul-19 02:32N 49°20' W 123°54'6 6.2
2016-Jul-19 01:33N 49°25' W 124°01'6 6.0
2016-Jul-19 00:33N 49°28' W 124°08'7 6.6
2016-Jul-18 23:26N 49°32' W 124°17'6 6.7
2016-Jul-18 22:29N 49°35' W 124°26'7 6.9
2016-Jul-18 21:32N 49°40' W 124°33'1 0.7
2016-Jul-18 19:30N 49°42' W 124°33'0 0.0
2016-Jul-18 18:23N 49°42' W 124°33'0 0.0
2016-Jul-18 17:30N 49°42' W 124°33'0 0.0
2016-Jul-18 16:26N 49°42' W 124°33'0 0.0
2016-Jul-18 15:31N 49°42' W 124°33'0 0.0
2016-Jul-18 14:29N 49°42' W 124°33'0 0.0
2016-Jul-18 13:33N 49°42' W 124°33'0 0.1
2016-Jul-18 12:22N 49°42' W 124°33'1 1.4
2016-Jul-18 11:31N 49°40' W 124°33'8 8.3
2016-Jul-18 10:32N 49°35' W 124°24'8 8.3
2016-Jul-18 09:32N 49°31' W 124°13'8 7.9
2016-Jul-18 08:32N 49°26' W 124°04'7 7.4
2016-Jul-18 07:33N 49°21' W 123°55'8 7.9
2016-Jul-18 06:32N 49°16' W 123°45'8 8.0
2016-Jul-18 05:33N 49°13' W 123°35'7 7.5
2016-Jul-18 04:33N 49°08' W 123°26'7 7.5
2016-Jul-18 03:33N 49°02' W 123°18'8 8.2
2016-Jul-18 02:33N 48°57' W 123°09'8 8.5
2016-Jul-18 01:33N 48°52' W 122°59'8 8.4
2016-Jul-18 00:33N 48°46' W 122°49'9 9.0
2016-Jul-17 23:33N 48°38' W 122°44'1110.7
2016-Jul-17 22:33N 48°27' W 122°44'9 8.8
2016-Jul-17 21:33N 48°19' W 122°46'17 5.6
2016-Jul-17 18:26N 48°02' W 122°37'7 7.7
2016-Jul-17 17:33N 47°57' W 122°31'8 8.4
2016-Jul-17 16:33N 47°49' W 122°26'9 8.6
2016-Jul-17 15:33N 47°40' W 122°27'6 5.9
2016-Jul-17 14:33N 47°36' W 122°22'2 2.0
2016-Jul-17 13:33N 47°34' W 122°21'0 0.0
2016-Jul-17 12:33N 47°34' W 122°21'0 0.0
2016-Jul-17 11:33N 47°34' W 122°21'0 0.0
2016-Jul-17 10:33N 47°34' W 122°21'0 0.0
2016-Jul-17 09:33N 47°34' W 122°21'0 0.0
2016-Jul-17 08:33N 47°34' W 122°21'0 0.0
2016-Jul-17 07:33N 47°34' W 122°21'0 0.0
2016-Jul-17 06:33N 47°34' W 122°21'1 0.3
2016-Jul-17 04:33N 47°34' W 122°21'0 0.0
2016-Jul-17 03:33N 47°34' W 122°21'0 0.0
2016-Jul-17 02:33N 47°34' W 122°21'0 0.0
2016-Jul-17 01:33N 47°34' W 122°21'1 1.1
2016-Jul-17 00:33N 47°35' W 122°22'0 0.2
2016-Jul-16 23:33N 47°36' W 122°22'0 0.0
2016-Jul-16 22:33N 47°36' W 122°22'0 0.0
2016-Jul-16 21:33N 47°36' W 122°22'0 0.1
2016-Jul-16 20:33N 47°36' W 122°22'1 1.4
2016-Jul-16 19:33N 47°34' W 122°21'0 0.0
2016-Jul-16 18:33N 47°34' W 122°21'0 0.0
2016-Jul-16 17:33N 47°34' W 122°21'1 0.6
2016-Jul-16 16:33N 47°34' W 122°21'1 1.3
2016-Jul-16 15:34N 47°35' W 122°22'1 1.4
2016-Jul-16 14:33N 47°34' W 122°21'1 0.0
2016-Jul-15 16:18N 47°34' W 122°21'0 0.0
2016-Jul-15 15:33N 47°34' W 122°21'0 0.0
2016-Jul-15 14:33N 47°34' W 122°21'0 0.0
2016-Jul-15 13:33N 47°34' W 122°21'0 0.0
2016-Jul-15 12:33N 47°34' W 122°21'0 0.0
2016-Jul-15 11:33N 47°34' W 122°21'0 0.0
2016-Jul-15 10:33N 47°34' W 122°21'2 2.1
2016-Jul-15 09:33N 47°33' W 122°20'4 3.6
2016-Jul-15 08:33N 47°36' W 122°22'2 1.6
2016-Jul-15 07:33N 47°34' W 122°21'0 0.0
2016-Jul-15 06:33N 47°34' W 122°21'0 0.0
2016-Jul-15 05:33N 47°34' W 122°21'0 0.0
2016-Jul-15 04:33N 47°34' W 122°21'0 0.0
2016-Jul-15 03:33N 47°34' W 122°21'0 0.0
2016-Jul-15 02:33N 47°34' W 122°21'0 0.0
2016-Jul-15 01:33N 47°34' W 122°21'0 0.0
2016-Jul-15 00:33N 47°34' W 122°21'0 0.0
2016-Jul-14 23:33N 47°34' W 122°21'0 0.0
2016-Jul-14 22:33N 47°34' W 122°21'0 0.0
2016-Jul-14 21:33N 47°34' W 122°21'0 0.3
2016-Jul-14 20:33N 47°34' W 122°21'1 1.3
2016-Jul-14 19:33N 47°35' W 122°22'3 2.6
2016-Jul-14 18:32N 47°33' W 122°20'1 1.1
2016-Jul-14 17:33N 47°34' W 122°21'0 0.0
2016-Jul-14 16:33N 47°34' W 122°21'3 3.0
2016-Jul-14 15:33N 47°36' W 122°24'5 5.4
2016-Jul-14 14:33N 47°31' W 122°29'6 6.4
2016-Jul-14 13:33N 47°25' W 122°32'7 6.8
2016-Jul-14 12:33N 47°19' W 122°33'7 7.4
2016-Jul-14 11:33N 47°12' W 122°37'  

Dump ship's entire track history